createdAt,value
2019-04-05T00:00:10.339Z,157.50
2019-04-05T00:02:40.476Z,157.20
2019-04-05T00:05:10.302Z,152.27
2019-04-05T00:07:39.832Z,156.77
2019-04-05T00:10:10.360Z,150.87
2019-04-05T00:12:39.811Z,164.73
2019-04-05T00:15:15.475Z,153.93
2019-04-05T00:17:40.623Z,151.67
2019-04-05T00:20:10.372Z,155.77
2019-04-05T00:22:39.836Z,156.97
2019-04-05T00:25:09.398Z,146.03
2019-04-05T00:27:38.860Z,146.00
2019-04-05T00:30:10.596Z,147.87
2019-04-05T00:32:40.066Z,146.60
2019-04-05T00:35:09.645Z,142.27
2019-04-05T00:37:39.080Z,146.13
2019-04-05T00:40:10.375Z,152.00
2019-04-05T00:42:39.841Z,129.43
2019-04-05T00:45:10.557Z,149.00
2019-04-05T00:47:40.035Z,143.53
2019-04-05T00:50:09.942Z,131.77
2019-04-05T00:52:39.546Z,133.03
2019-04-05T00:55:09.771Z,134.80
2019-04-05T00:57:39.236Z,116.73
2019-04-05T01:00:09.163Z,130.13
2019-04-05T01:02:38.688Z,116.83
2019-04-05T01:05:08.785Z,131.07
2019-04-05T01:07:38.380Z,124.50
2019-04-05T01:10:08.506Z,129.03
2019-04-05T01:12:39.475Z,117.50
2019-04-05T01:15:10.792Z,120.57
2019-04-05T01:17:40.319Z,108.80
2019-04-05T01:20:10.746Z,111.53
2019-04-05T01:22:41.379Z,115.13
2019-04-05T01:25:11.002Z,116.93
2019-04-05T01:27:41.497Z,106.50
2019-04-05T01:30:15.145Z,106.40
2019-04-05T01:32:44.643Z,110.33
2019-04-05T01:35:14.199Z,111.43
2019-04-05T01:37:44.577Z,116.40
2019-04-05T01:40:14.500Z,105.53
2019-04-05T01:42:44.221Z,105.17
2019-04-05T01:45:14.337Z,109.23
2019-04-05T01:47:43.859Z,112.20
2019-04-05T01:50:13.483Z,101.90
2019-04-05T01:52:43.415Z,103.17
2019-04-05T01:55:13.048Z,105.43
2019-04-05T01:57:42.575Z,112.60
2019-04-05T02:00:13.599Z,103.83
2019-04-05T02:02:43.324Z,89.70
2019-04-05T02:05:12.949Z,88.57
2019-04-05T02:07:42.545Z,99.50
2019-04-05T02:10:12.476Z,92.10
2019-04-05T02:12:42.402Z,101.00
2019-04-05T02:15:15.019Z,99.63
2019-04-05T02:17:44.423Z,92.27
2019-04-05T02:20:13.971Z,93.97
2019-04-05T02:22:43.432Z,102.57
2019-04-05T02:25:12.989Z,106.47
2019-04-05T02:27:42.444Z,94.17
2019-04-05T02:30:12.061Z,98.40
2019-04-05T02:32:41.519Z,95.80
2019-04-05T02:35:11.530Z,96.67
2019-04-05T02:37:41.030Z,98.60
2019-04-05T02:40:13.551Z,98.33
2019-04-05T02:42:45.140Z,111.50
2019-04-05T02:45:17.336Z,106.03
2019-04-05T02:47:51.811Z,109.27
2019-04-05T02:50:23.588Z,104.50
2019-04-05T02:52:56.209Z,102.33
2019-04-05T02:55:27.252Z,114.90
2019-04-05T02:57:58.853Z,111.00
2019-04-05T03:00:29.375Z,109.83
2019-04-05T03:02:59.675Z,111.07
2019-04-05T03:05:29.498Z,108.20
2019-04-05T03:07:59.194Z,107.73
2019-04-05T03:10:51.503Z,112.07
2019-04-05T03:13:24.759Z,108.13
2019-04-05T03:15:58.267Z,106.63
2019-04-05T03:18:30.175Z,112.20
2019-04-05T03:21:03.712Z,119.03
2019-04-05T03:23:36.512Z,115.47
2019-04-05T03:26:08.008Z,104.60
2019-04-05T03:28:40.402Z,117.37
2019-04-05T03:31:10.430Z,111.73
2019-04-05T03:33:40.437Z,111.00
2019-04-05T03:36:10.006Z,114.57
2019-04-05T03:38:39.546Z,101.43
2019-04-05T03:41:09.076Z,125.03
2019-04-05T03:43:39.658Z,117.80
2019-04-05T03:46:09.911Z,112.63
2019-04-05T03:48:39.381Z,110.97
2019-04-05T03:51:09.398Z,126.93
2019-04-05T03:53:39.130Z,124.87
2019-04-05T03:56:08.693Z,119.80
2019-04-05T03:58:38.224Z,122.80
2019-04-05T04:01:07.704Z,117.20
2019-04-05T04:03:37.504Z,109.80
2019-04-05T04:06:07.094Z,114.10
2019-04-05T04:08:36.525Z,119.87
2019-04-05T04:11:07.256Z,116.63
2019-04-05T04:13:36.856Z,113.27
2019-04-05T04:16:06.885Z,106.00
2019-04-05T04:18:37.384Z,112.30
2019-04-05T04:21:09.948Z,113.47
2019-04-05T04:23:39.481Z,113.90
2019-04-05T04:26:08.975Z,109.57
2019-04-05T04:28:39.370Z,113.77
2019-04-05T04:31:08.853Z,119.13
2019-04-05T04:33:38.450Z,111.50
2019-04-05T04:36:08.426Z,113.63
2019-04-05T04:38:38.269Z,120.77
2019-04-05T04:41:08.014Z,123.83
2019-04-05T04:43:37.555Z,118.97
2019-04-05T04:46:07.975Z,112.13
2019-04-05T04:48:37.505Z,112.77
2019-04-05T04:51:07.632Z,111.07
2019-04-05T04:53:37.247Z,109.67
2019-04-05T04:56:07.343Z,119.13
2019-04-05T04:58:36.825Z,117.30
2019-04-05T05:01:06.551Z,101.00
2019-04-05T05:03:36.674Z,118.23
2019-04-05T05:06:06.468Z,104.67
2019-04-05T05:08:36.022Z,105.33
2019-04-05T05:11:14.351Z,110.37
2019-04-05T05:13:36.653Z,95.97
2019-04-05T05:16:06.182Z,98.13
2019-04-05T05:18:35.935Z,96.87
2019-04-05T05:21:06.127Z,91.53
2019-04-05T05:23:35.731Z,96.30
2019-04-05T05:26:05.269Z,91.27
2019-04-05T05:28:34.747Z,84.03
2019-04-05T05:31:04.453Z,99.63
2019-04-05T05:33:34.000Z,84.50
2019-04-05T05:36:03.729Z,81.33
2019-04-05T05:38:33.551Z,83.30
2019-04-05T05:41:02.987Z,87.50
2019-04-05T05:43:32.535Z,77.07
2019-04-05T05:46:02.072Z,80.97
2019-04-05T05:48:31.885Z,80.40
2019-04-05T05:51:01.708Z,86.97
2019-04-05T05:53:31.318Z,81.33
2019-04-05T05:56:00.767Z,79.53
2019-04-05T05:58:30.254Z,75.77
2019-04-05T06:00:59.702Z,80.83
2019-04-05T06:03:29.181Z,83.20
2019-04-05T06:06:04.666Z,84.67
2019-04-05T06:08:29.731Z,78.00
2019-04-05T06:10:59.184Z,69.53
2019-04-05T06:13:28.667Z,72.20
2019-04-05T06:15:58.116Z,83.67
2019-04-05T06:18:27.590Z,85.40
2019-04-05T06:20:57.053Z,82.90
2019-04-05T06:23:33.534Z,83.87
2019-04-05T06:25:57.595Z,84.07
2019-04-05T06:28:27.082Z,96.07
2019-04-05T06:30:56.523Z,84.93
2019-04-05T06:33:31.724Z,94.93
2019-04-05T06:35:57.074Z,92.37
2019-04-05T06:38:26.546Z,84.53
2019-04-05T06:40:56.006Z,99.70
2019-04-05T06:43:25.551Z,90.93
2019-04-05T06:45:55.133Z,89.77
2019-04-05T06:48:24.689Z,98.60
2019-04-05T06:50:54.143Z,94.47
2019-04-05T06:53:23.618Z,90.43
2019-04-05T06:55:54.218Z,99.97
2019-04-05T06:58:29.000Z,97.33
2019-04-05T07:00:57.402Z,100.87
2019-04-05T07:03:25.956Z,99.07
2019-04-05T07:05:56.470Z,92.80
2019-04-05T07:08:25.951Z,94.17
2019-04-05T07:10:55.407Z,88.53
2019-04-05T07:13:27.290Z,84.20
2019-04-05T07:15:55.963Z,94.10
2019-04-05T07:18:33.977Z,93.77
2019-04-05T07:20:58.026Z,95.10
2019-04-05T07:23:27.570Z,92.47
2019-04-05T07:25:57.027Z,92.87
2019-04-05T07:28:26.500Z,90.73
2019-04-05T07:30:55.949Z,88.53
2019-04-05T07:33:25.438Z,80.70
2019-04-05T07:35:55.960Z,96.53
2019-04-05T07:38:25.450Z,101.27
2019-04-05T07:40:54.898Z,93.20
2019-04-05T07:43:24.389Z,98.30
2019-04-05T07:45:53.834Z,92.13
2019-04-05T07:48:23.326Z,77.63
2019-04-05T07:50:52.778Z,96.53
2019-04-05T07:53:22.254Z,82.63
2019-04-05T07:55:51.713Z,82.90
2019-04-05T07:58:21.189Z,85.50
2019-04-05T08:00:54.990Z,78.67
2019-04-05T08:03:25.008Z,90.70
2019-04-05T08:05:54.600Z,87.50
2019-04-05T08:08:38.980Z,95.97
2019-04-05T08:11:08.566Z,77.10
2019-04-05T08:13:40.653Z,80.60
2019-04-05T08:16:10.111Z,90.70
2019-04-05T08:18:39.586Z,88.60
2019-04-05T08:21:09.051Z,81.07
2019-04-05T08:23:38.535Z,78.10
2019-04-05T08:26:07.988Z,70.60
2019-04-05T08:28:37.460Z,66.23
2019-04-05T08:31:10.544Z,77.47
2019-04-05T08:33:38.079Z,77.13
2019-04-05T08:36:07.535Z,68.80
2019-04-05T08:38:39.651Z,80.37
2019-04-05T08:41:08.099Z,63.67
2019-04-05T08:43:37.583Z,60.47
2019-04-05T08:46:07.109Z,61.50
2019-04-05T08:48:36.572Z,68.57
2019-04-05T08:51:06.135Z,61.70
2019-04-05T08:53:35.578Z,63.43
2019-04-05T08:56:05.198Z,64.23
2019-04-05T08:58:34.655Z,64.47
2019-04-05T09:01:04.208Z,65.53
2019-04-05T09:03:33.664Z,62.43
2019-04-05T09:06:03.209Z,64.20
2019-04-05T09:08:32.665Z,57.00
2019-04-05T09:11:02.139Z,60.80
2019-04-05T09:13:31.658Z,57.63
2019-04-05T09:16:01.139Z,51.53
2019-04-05T09:18:30.599Z,56.70
2019-04-05T09:21:00.071Z,61.23
2019-04-05T09:23:29.529Z,49.10
2019-04-05T09:25:59.006Z,44.67
2019-04-05T09:28:29.529Z,52.27
2019-04-05T09:30:59.150Z,53.60
2019-04-05T09:33:28.595Z,54.53
2019-04-05T09:35:58.078Z,56.97
2019-04-05T09:38:27.539Z,56.13
2019-04-05T09:40:57.021Z,55.40
2019-04-05T09:43:26.475Z,50.80
2019-04-05T09:45:55.951Z,50.83
2019-04-05T09:48:25.402Z,50.80
2019-04-05T09:50:54.886Z,50.27
2019-04-05T09:53:24.339Z,44.07
2019-04-05T09:55:53.892Z,49.10
2019-04-05T09:58:23.343Z,45.67
2019-04-05T10:00:52.891Z,46.77
2019-04-05T10:03:22.334Z,48.63
2019-04-05T10:05:51.793Z,51.13
2019-04-05T10:08:21.246Z,49.23
2019-04-05T10:10:51.176Z,48.57
2019-04-05T10:13:20.629Z,49.93
2019-04-05T10:15:50.119Z,56.77
2019-04-05T10:18:19.556Z,58.53
2019-04-05T10:20:49.025Z,49.10
2019-04-05T10:23:18.478Z,50.97
2019-04-05T10:25:47.948Z,50.33
2019-04-05T10:28:17.395Z,52.47
2019-04-05T10:30:46.857Z,50.90
2019-04-05T10:33:16.306Z,51.80
2019-04-05T10:35:45.769Z,48.33
2019-04-05T10:38:15.219Z,46.90
2019-04-05T10:40:44.691Z,49.90
2019-04-05T10:43:14.197Z,52.83
2019-04-05T10:45:43.737Z,56.03
2019-04-05T10:48:13.249Z,55.83
2019-04-05T10:50:42.717Z,52.43
2019-04-05T10:53:12.157Z,51.20
2019-04-05T10:55:41.633Z,45.70
2019-04-05T10:58:11.083Z,55.50
2019-04-05T11:00:40.613Z,55.40
2019-04-05T11:03:10.084Z,55.07
2019-04-05T11:05:39.546Z,48.47
2019-04-05T11:08:08.989Z,55.20
2019-04-05T11:10:38.480Z,50.57
2019-04-05T11:13:09.000Z,44.77
2019-04-05T11:15:38.453Z,51.80
2019-04-05T11:18:07.892Z,48.63
2019-04-05T11:20:37.369Z,47.50
2019-04-05T11:23:06.813Z,45.87
2019-04-05T11:25:36.281Z,44.03
2019-04-05T11:28:05.721Z,44.20
2019-04-05T11:30:47.497Z,47.97
2019-04-05T11:33:19.458Z,41.57
2019-04-05T11:35:48.102Z,49.30
2019-04-05T11:38:18.585Z,59.60
2019-04-05T11:40:48.497Z,50.77
2019-04-05T11:43:18.977Z,48.63
2019-04-05T11:45:58.663Z,47.73
2019-04-05T11:48:30.458Z,43.53
2019-04-05T11:50:59.441Z,51.33
2019-04-05T11:53:28.879Z,58.20
2019-04-05T11:55:58.351Z,55.97
2019-04-05T11:58:27.794Z,55.53
2019-04-05T12:00:58.909Z,49.73
2019-04-05T12:03:29.989Z,53.33
2019-04-05T12:05:59.460Z,54.37
2019-04-05T12:08:28.911Z,64.03
2019-04-05T12:10:58.388Z,50.27
2019-04-05T12:13:27.831Z,61.30
2019-04-05T12:15:58.315Z,55.13
2019-04-05T12:18:27.842Z,53.77
2019-04-05T12:21:00.245Z,60.33
2019-04-05T12:23:28.378Z,59.80
2019-04-05T12:25:57.856Z,64.07
2019-04-05T12:28:27.301Z,61.23
2019-04-05T12:30:56.761Z,59.20
2019-04-05T12:33:26.240Z,60.23
2019-04-05T12:35:56.653Z,50.87
2019-04-05T12:38:33.187Z,55.93
2019-04-05T12:41:04.670Z,63.57
2019-04-05T12:43:35.200Z,62.60
2019-04-05T12:46:05.188Z,55.23
2019-04-05T12:48:34.659Z,58.90
2019-04-05T12:51:05.641Z,63.57
2019-04-05T12:53:35.341Z,62.73
2019-04-05T12:56:05.519Z,65.87
2019-04-05T12:58:34.985Z,58.07
2019-04-05T13:01:04.500Z,54.07
2019-04-05T13:03:33.970Z,49.93
2019-04-05T13:06:03.410Z,60.90
2019-04-05T13:08:32.872Z,49.23
2019-04-05T13:11:02.337Z,62.37
2019-04-05T13:13:31.853Z,61.47
2019-04-05T13:16:02.265Z,62.40
2019-04-05T13:18:31.852Z,58.70
2019-04-05T13:21:09.372Z,58.67
2019-04-05T13:23:33.811Z,59.77
2019-04-05T13:26:03.513Z,58.50
2019-04-05T13:28:33.066Z,59.17
2019-04-05T13:31:02.510Z,67.70
2019-04-05T13:33:31.971Z,62.73
2019-04-05T13:36:01.417Z,55.10
2019-04-05T13:38:30.883Z,64.50
2019-04-05T13:41:01.522Z,63.37
2019-04-05T13:43:31.852Z,63.30
2019-04-05T13:46:03.486Z,64.87
2019-04-05T13:48:32.948Z,69.33
2019-04-05T13:51:02.398Z,69.27
2019-04-05T13:53:31.878Z,62.23
2019-04-05T13:56:01.321Z,66.73
2019-04-05T13:58:30.783Z,65.20
2019-04-05T14:01:00.238Z,60.93
2019-04-05T14:03:29.702Z,64.20
2019-04-05T14:05:59.158Z,73.73
2019-04-05T14:08:28.620Z,72.60
2019-04-05T14:10:58.067Z,70.20
2019-04-05T14:13:28.375Z,71.70
2019-04-05T14:15:59.026Z,74.67
2019-04-05T14:18:28.493Z,80.93
2019-04-05T14:20:57.944Z,77.17
2019-04-05T14:23:27.416Z,81.87
2019-04-05T14:25:59.962Z,77.23
2019-04-05T14:28:29.037Z,74.50
2019-04-05T14:31:02.217Z,81.60
2019-04-05T14:33:30.548Z,77.33
2019-04-05T14:35:59.986Z,70.60
2019-04-05T14:38:31.324Z,85.93
2019-04-05T14:41:00.513Z,76.43
2019-04-05T14:43:30.118Z,82.13
2019-04-05T14:45:59.602Z,79.87
2019-04-05T14:48:31.778Z,81.87
2019-04-05T14:51:00.141Z,80.07
2019-04-05T14:53:32.016Z,86.47
2019-04-05T14:56:00.679Z,85.47
2019-04-05T14:58:30.146Z,76.60
2019-04-05T15:00:59.681Z,87.80
2019-04-05T15:03:29.739Z,79.60
2019-04-05T15:05:59.201Z,89.10
2019-04-05T15:08:28.675Z,81.10
2019-04-05T15:10:58.113Z,80.57
2019-04-05T15:13:27.574Z,86.90
2019-04-05T15:15:57.031Z,79.40
2019-04-05T15:18:26.490Z,84.37
2019-04-05T15:20:55.949Z,82.70
2019-04-05T15:23:25.409Z,86.47
2019-04-05T15:25:55.134Z,90.33
2019-04-05T15:28:25.251Z,80.80
2019-04-05T15:30:56.231Z,80.03
2019-04-05T15:33:27.736Z,84.47
2019-04-05T15:36:00.218Z,87.37
2019-04-05T15:38:31.343Z,96.47
2019-04-05T15:40:59.086Z,97.70
2019-04-05T15:43:28.620Z,87.70
2019-04-05T15:45:58.069Z,84.63
2019-04-05T15:48:27.545Z,77.63
2019-04-05T15:50:59.306Z,86.30
2019-04-05T15:53:31.901Z,82.77
2019-04-05T15:55:59.165Z,84.33
2019-04-05T15:58:31.596Z,69.80
2019-04-05T16:01:04.172Z,80.87
2019-04-05T16:03:32.353Z,75.97
2019-04-05T16:06:02.478Z,88.17
2019-04-05T16:08:32.013Z,86.87
2019-04-05T16:11:01.461Z,81.53
2019-04-05T16:13:30.935Z,82.07
2019-04-05T16:16:00.380Z,89.77
2019-04-05T16:18:29.846Z,74.80
2019-04-05T16:20:59.296Z,73.33
2019-04-05T16:23:28.760Z,82.37
2019-04-05T16:25:58.234Z,84.03
2019-04-05T16:28:27.681Z,87.33
2019-04-05T16:30:58.213Z,90.80
2019-04-05T16:33:27.660Z,90.17
2019-04-05T16:35:57.126Z,78.10
2019-04-05T16:38:26.573Z,78.20
2019-04-05T16:40:56.046Z,76.73
2019-04-05T16:43:25.485Z,79.93
2019-04-05T16:45:54.961Z,69.83
2019-04-05T16:48:24.413Z,78.97
2019-04-05T16:50:55.557Z,79.47
2019-04-05T16:53:28.162Z,74.60
2019-04-05T16:55:58.973Z,70.50
2019-04-05T16:58:30.198Z,76.47
2019-04-05T17:00:59.804Z,80.57
2019-04-05T17:03:29.350Z,79.53
2019-04-05T17:05:59.073Z,86.57
2019-04-05T17:08:29.861Z,83.80
2019-04-05T17:11:01.071Z,75.43
2019-04-05T17:13:33.134Z,79.50
2019-04-05T17:16:03.835Z,99.37
2019-04-05T17:18:33.526Z,91.20
2019-04-05T17:21:03.287Z,91.00
2019-04-05T17:23:33.254Z,98.00
2019-04-05T17:26:03.005Z,90.23
2019-04-05T17:28:32.761Z,92.33
2019-04-05T17:31:05.060Z,101.03
2019-04-05T17:33:34.758Z,97.20
2019-04-05T17:36:04.526Z,111.43
2019-04-05T17:38:34.551Z,95.00
2019-04-05T17:41:04.470Z,100.60
2019-04-05T17:43:34.062Z,120.03
2019-04-05T17:46:03.797Z,110.90
2019-04-05T17:48:33.515Z,114.47
2019-04-05T17:51:03.250Z,121.97
2019-04-05T17:53:33.203Z,124.47
2019-04-05T17:56:03.701Z,117.67
2019-04-05T17:58:39.837Z,115.63
2019-04-05T18:01:10.401Z,119.13
2019-04-05T18:03:40.005Z,126.33
2019-04-05T18:06:09.568Z,110.40
2019-04-05T18:08:39.022Z,124.77
2019-04-05T18:11:08.489Z,123.40
2019-04-05T18:13:37.950Z,126.23
2019-04-05T18:16:07.421Z,112.50
2019-04-05T18:18:36.901Z,115.43
2019-04-05T18:21:06.446Z,130.37
2019-04-05T18:23:35.902Z,121.33
2019-04-05T18:26:05.446Z,126.67
2019-04-05T18:28:35.536Z,134.07
2019-04-05T18:31:05.030Z,134.73
2019-04-05T18:33:34.584Z,143.37
2019-04-05T18:36:04.115Z,143.60
2019-04-05T18:38:33.630Z,146.53
2019-04-05T18:41:03.103Z,141.27
2019-04-05T18:43:32.557Z,149.77
2019-04-05T18:46:02.029Z,142.87
2019-04-05T18:48:31.478Z,159.00
2019-04-05T18:51:00.955Z,160.37
2019-04-05T18:53:37.494Z,153.23
2019-04-05T18:56:02.842Z,157.97
2019-04-05T18:58:34.078Z,184.40
2019-04-05T19:01:03.610Z,167.80
2019-04-05T19:03:33.081Z,160.63
2019-04-05T19:06:02.550Z,173.00
2019-04-05T19:08:39.599Z,185.30
2019-04-05T19:11:03.294Z,172.43
2019-04-05T19:13:32.814Z,208.43
2019-04-05T19:16:02.304Z,205.90
2019-04-05T19:18:31.883Z,183.23
2019-04-05T19:21:01.335Z,192.90
2019-04-05T19:23:30.793Z,217.97
2019-04-05T19:26:00.266Z,213.10
2019-04-05T19:28:29.720Z,224.20
2019-04-05T19:48:37.341Z,255.23
2019-04-05T19:51:07.010Z,366.33
2019-04-05T19:53:36.692Z,626.17
2019-04-05T19:56:07.434Z,520.47
2019-04-05T19:58:37.159Z,596.23
2019-04-05T20:01:06.694Z,494.70
2019-04-05T20:03:36.255Z,265.23
2019-04-05T20:06:07.952Z,599.70
2019-04-05T20:08:38.658Z,710.47
2019-04-05T20:11:08.468Z,561.50
2019-04-05T20:13:38.101Z,688.00
2019-04-05T20:16:20.055Z,751.37
2019-04-05T20:18:49.521Z,643.03
2019-04-05T20:21:20.070Z,786.70
2019-04-05T20:23:49.601Z,554.83
2019-04-05T20:26:19.131Z,897.77
2019-04-05T20:28:48.592Z,726.70
2019-04-05T20:31:18.059Z,844.87
2019-04-05T20:33:47.551Z,1057.93
2019-04-05T20:36:17.019Z,1096.37
2019-04-05T20:38:46.522Z,1009.63
2019-04-05T20:41:15.989Z,1043.37
2019-04-05T20:43:45.473Z,795.63
2019-04-05T20:46:14.926Z,752.63
2019-04-05T20:48:44.483Z,785.63
2019-04-05T20:51:13.955Z,1126.50
2019-04-05T20:53:43.456Z,873.40
2019-04-05T20:56:12.907Z,964.60
2019-04-05T20:58:42.393Z,992.73
2019-04-05T21:01:11.851Z,847.30
2019-04-05T21:03:41.389Z,443.63
2019-04-05T21:06:17.345Z,757.70
2019-04-05T21:08:46.831Z,771.23
2019-04-05T21:11:16.291Z,783.73
2019-04-05T21:13:45.791Z,1037.30
2019-04-05T21:16:15.255Z,1035.60
2019-04-05T21:18:44.746Z,914.20
2019-04-05T21:21:14.224Z,1150.10
2019-04-05T21:23:43.711Z,888.73
2019-04-05T21:26:13.234Z,717.20
2019-04-05T21:28:42.723Z,649.43
2019-04-05T21:31:12.238Z,629.03
2019-04-05T21:33:41.720Z,602.13
2019-04-05T21:36:11.184Z,648.30
2019-04-05T21:38:40.666Z,782.90
2019-04-05T21:41:10.121Z,744.73
2019-04-05T21:43:39.600Z,553.50
2019-04-05T21:46:09.154Z,479.50
2019-04-05T21:48:38.635Z,564.17
2019-04-05T21:51:08.170Z,439.27
2019-04-05T21:53:37.654Z,505.70
2019-04-05T21:56:07.102Z,457.00
2019-04-05T21:58:36.583Z,474.20
2019-04-05T22:01:08.462Z,331.97
2019-04-05T22:03:39.219Z,556.53
2019-04-05T22:06:08.705Z,446.03
2019-04-05T22:08:38.183Z,400.47
2019-04-05T22:11:07.634Z,397.27
2019-04-05T22:13:37.111Z,380.10
2019-04-05T22:16:06.571Z,361.40
2019-04-05T22:18:36.052Z,458.83
2019-04-05T22:21:05.507Z,426.00
2019-04-05T22:23:34.990Z,537.90
2019-04-05T22:26:04.456Z,486.67
2019-04-05T22:28:33.934Z,497.37
2019-04-05T22:31:03.457Z,503.60
2019-04-05T22:33:32.938Z,594.07
2019-04-05T22:36:02.396Z,479.30
2019-04-05T22:38:31.875Z,336.37
2019-04-05T22:41:01.346Z,564.03
2019-04-05T22:43:30.815Z,500.63
2019-04-05T22:46:01.346Z,493.90
2019-04-05T22:48:30.831Z,505.47
2019-04-05T22:51:00.288Z,496.67
2019-04-05T22:53:29.770Z,354.03
2019-04-05T22:55:59.234Z,336.10
2019-04-05T22:58:28.718Z,322.53
2019-04-05T23:00:58.181Z,281.30
2019-04-05T23:03:27.673Z,281.67
2019-04-05T23:05:57.132Z,298.67
2019-04-05T23:08:26.615Z,297.47
2019-04-05T23:10:56.075Z,291.47
2019-04-05T23:13:26.623Z,338.60
2019-04-05T23:15:56.086Z,304.73
2019-04-05T23:18:25.620Z,291.87
2019-04-05T23:20:55.051Z,291.40
2019-04-05T23:23:24.535Z,279.40
2019-04-05T23:25:54.000Z,303.90
2019-04-05T23:28:23.455Z,312.80
2019-04-05T23:30:54.010Z,311.33
2019-04-05T23:33:23.463Z,295.27
2019-04-05T23:35:52.942Z,299.67
2019-04-05T23:38:22.398Z,298.87
2019-04-05T23:40:51.887Z,333.87
2019-04-05T23:43:21.343Z,357.43
2019-04-05T23:45:50.827Z,336.93
2019-04-05T23:48:20.284Z,302.20
2019-04-05T23:50:49.762Z,287.87
2019-04-05T23:53:19.215Z,353.23
2019-04-05T23:55:48.701Z,308.73
2019-04-05T23:58:18.162Z,320.83
